createdAt,value
2023-04-16T00:00:54.128Z,27.00
2023-04-16T00:03:21.916Z,27.48
2023-04-16T00:05:49.536Z,28.15
2023-04-16T00:08:17.138Z,24.52
2023-04-16T00:10:44.780Z,26.65
2023-04-16T00:13:12.362Z,28.17
2023-04-16T00:15:41.374Z,32.85
2023-04-16T00:18:08.945Z,28.38
2023-04-16T00:20:36.393Z,31.52
2023-04-16T00:23:03.931Z,28.45
2023-04-16T00:25:31.514Z,25.33
2023-04-16T00:27:59.083Z,26.10
2023-04-16T00:30:26.655Z,28.58
2023-04-16T00:32:55.792Z,26.73
2023-04-16T00:35:23.412Z,26.65
2023-04-16T00:37:50.993Z,30.08
2023-04-16T00:40:18.743Z,27.98
2023-04-16T00:42:46.549Z,27.05
2023-04-16T00:45:14.185Z,22.33
2023-04-16T00:47:42.028Z,26.40
2023-04-16T00:50:11.486Z,26.80
2023-04-16T00:52:39.489Z,32.50
2023-04-16T00:55:07.988Z,29.35
2023-04-16T00:57:35.546Z,30.38
2023-04-16T01:00:03.634Z,29.17
2023-04-16T01:02:31.289Z,29.25
2023-04-16T01:04:58.848Z,31.90
2023-04-16T01:07:27.839Z,28.88
2023-04-16T01:09:55.490Z,25.80
2023-04-16T01:12:23.170Z,30.23
2023-04-16T01:14:50.798Z,27.13
2023-04-16T01:17:18.469Z,25.85
2023-04-16T01:19:46.056Z,28.52
2023-04-16T01:22:14.908Z,29.10
2023-04-16T01:24:42.459Z,27.00
2023-04-16T01:27:10.047Z,26.05
2023-04-16T01:29:37.577Z,23.05
2023-04-16T01:32:05.233Z,28.92
2023-04-16T01:34:32.791Z,27.45
2023-04-16T01:37:00.346Z,27.92
2023-04-16T01:39:29.291Z,28.25
2023-04-16T01:41:57.149Z,27.48
2023-04-16T01:44:25.512Z,24.33
2023-04-16T01:46:53.141Z,27.90
2023-04-16T01:49:23.496Z,29.95
2023-04-16T01:51:51.801Z,29.50
2023-04-16T01:54:19.341Z,25.20
2023-04-16T01:56:48.419Z,30.15
2023-04-16T01:59:15.967Z,25.60
2023-04-16T02:01:43.740Z,29.20
2023-04-16T02:04:11.425Z,24.52
2023-04-16T02:06:39.054Z,26.58
2023-04-16T02:09:06.791Z,25.20
2023-04-16T02:11:34.485Z,24.77
2023-04-16T02:14:03.513Z,33.05
2023-04-16T02:16:31.160Z,24.48
2023-04-16T02:18:58.717Z,23.88
2023-04-16T02:21:26.261Z,23.88
2023-04-16T02:23:53.784Z,25.20
2023-04-16T02:26:21.403Z,23.77
2023-04-16T02:28:49.070Z,22.35
2023-04-16T02:31:19.699Z,26.95
2023-04-16T02:33:47.594Z,25.05
2023-04-16T02:36:15.178Z,22.42
2023-04-16T02:38:42.685Z,24.23
2023-04-16T02:41:10.204Z,25.55
2023-04-16T02:43:37.663Z,22.23
2023-04-16T02:46:05.351Z,20.77
2023-04-16T02:48:34.343Z,27.92
2023-04-16T02:51:01.935Z,24.80
2023-04-16T02:53:29.422Z,25.50
2023-04-16T02:55:57.092Z,20.58
2023-04-16T02:58:26.352Z,27.70
2023-04-16T03:00:54.493Z,25.60
2023-04-16T03:03:22.469Z,31.42
2023-04-16T03:05:51.476Z,25.58
2023-04-16T03:08:18.988Z,24.83
2023-04-16T03:10:48.479Z,23.23
2023-04-16T03:13:16.132Z,23.60
2023-04-16T03:15:49.079Z,25.27
2023-04-16T03:18:16.878Z,25.17
2023-04-16T03:20:44.611Z,27.98
2023-04-16T03:23:13.606Z,30.60
2023-04-16T03:25:41.662Z,25.52
2023-04-16T03:28:09.229Z,25.10
2023-04-16T03:30:36.812Z,26.23
2023-04-16T03:33:04.449Z,31.88
2023-04-16T03:35:31.994Z,26.80
2023-04-16T03:37:59.571Z,27.67
2023-04-16T03:40:28.567Z,28.50
2023-04-16T03:42:56.176Z,27.65
2023-04-16T03:45:23.749Z,31.10
2023-04-16T03:47:52.859Z,30.85
2023-04-16T03:50:21.137Z,28.45
2023-04-16T03:52:49.535Z,30.65
2023-04-16T03:55:17.166Z,35.53
2023-04-16T03:57:46.199Z,29.85
2023-04-16T04:00:14.244Z,28.40
2023-04-16T04:02:42.052Z,30.00
2023-04-16T04:05:09.926Z,24.52
2023-04-16T04:07:37.443Z,27.40
2023-04-16T04:10:05.188Z,27.25
2023-04-16T04:12:32.949Z,30.63
2023-04-16T04:15:01.906Z,26.67
2023-04-16T04:17:29.574Z,24.55
2023-04-16T04:20:01.442Z,28.10
2023-04-16T04:22:29.564Z,26.30
2023-04-16T04:24:57.105Z,27.73
2023-04-16T04:27:24.821Z,25.90
2023-04-16T04:29:52.697Z,27.77
2023-04-16T04:32:21.845Z,31.30
2023-04-16T04:34:49.521Z,31.13
2023-04-16T04:37:17.188Z,28.02
2023-04-16T04:39:44.743Z,24.73
2023-04-16T04:42:12.338Z,27.05
2023-04-16T04:44:39.862Z,28.13
2023-04-16T04:47:07.396Z,28.23
2023-04-16T04:49:36.569Z,28.48
2023-04-16T04:52:04.304Z,29.02
2023-04-16T04:54:32.120Z,27.77
2023-04-16T04:56:59.843Z,27.35
2023-04-16T04:59:27.601Z,30.92
2023-04-16T05:01:55.416Z,26.25
2023-04-16T05:04:26.338Z,30.20
2023-04-16T05:06:55.386Z,33.20
2023-04-16T05:09:23.143Z,30.30
2023-04-16T05:11:50.817Z,32.08
2023-04-16T05:14:18.427Z,29.90
2023-04-16T05:16:46.032Z,35.40
2023-04-16T05:19:13.717Z,29.70
2023-04-16T05:21:41.244Z,38.15
2023-04-16T05:24:10.178Z,31.83
2023-04-16T05:26:37.770Z,35.47
2023-04-16T05:29:07.894Z,34.03
2023-04-16T05:31:35.476Z,30.00
2023-04-16T05:34:03.178Z,34.55
2023-04-16T05:36:30.689Z,38.72
2023-04-16T05:38:58.248Z,37.33
2023-04-16T05:41:27.196Z,42.30
2023-04-16T05:43:54.739Z,41.47
2023-04-16T05:46:22.453Z,37.28
2023-04-16T05:48:50.081Z,33.38
2023-04-16T05:51:17.852Z,40.83
2023-04-16T05:53:45.478Z,39.13
2023-04-16T05:56:13.051Z,39.63
2023-04-16T05:58:42.040Z,44.65
2023-04-16T06:01:09.569Z,37.92
2023-04-16T06:03:37.200Z,42.72
2023-04-16T06:06:05.031Z,46.80
2023-04-16T06:08:32.709Z,45.97
2023-04-16T06:11:00.334Z,48.45
2023-04-16T06:13:28.000Z,51.25
2023-04-16T06:15:56.927Z,51.38
2023-04-16T06:18:24.546Z,51.83
2023-04-16T06:20:52.035Z,51.70
2023-04-16T06:23:19.768Z,43.03
2023-04-16T06:25:47.333Z,54.33
2023-04-16T06:28:14.880Z,56.08
2023-04-16T06:30:44.415Z,57.75
2023-04-16T06:33:13.613Z,55.83
2023-04-16T06:35:41.323Z,56.92
2023-04-16T06:38:08.833Z,59.65
2023-04-16T06:40:37.735Z,52.53
2023-04-16T06:43:05.506Z,63.08
2023-04-16T06:45:33.122Z,60.55
2023-04-16T06:48:01.549Z,50.85
2023-04-16T06:50:30.585Z,58.55
2023-04-16T06:52:58.368Z,64.43
2023-04-16T06:55:25.963Z,58.22
2023-04-16T06:57:53.689Z,58.03
2023-04-16T07:00:21.623Z,59.30
2023-04-16T07:02:49.326Z,54.97
2023-04-16T07:05:16.954Z,58.25
2023-04-16T07:07:45.873Z,60.38
2023-04-16T07:10:13.480Z,60.45
2023-04-16T07:12:41.101Z,58.55
2023-04-16T07:15:09.235Z,60.65
2023-04-16T07:17:36.982Z,61.55
2023-04-16T07:20:04.859Z,62.58
2023-04-16T07:22:32.501Z,61.25
2023-04-16T07:25:01.479Z,53.90
2023-04-16T07:27:29.105Z,65.15
2023-04-16T07:29:56.666Z,58.30
2023-04-16T07:32:24.485Z,59.92
2023-04-16T07:34:52.170Z,59.83
2023-04-16T07:37:19.873Z,65.25
2023-04-16T07:39:48.137Z,60.47
2023-04-16T07:42:17.057Z,56.92
2023-04-16T07:44:45.060Z,54.53
2023-04-16T07:47:12.700Z,53.13
2023-04-16T07:49:40.568Z,51.47
2023-04-16T07:52:08.100Z,52.50
2023-04-16T07:54:35.816Z,51.28
2023-04-16T07:57:03.417Z,45.45
2023-04-16T07:59:32.335Z,47.42
2023-04-16T08:02:00.140Z,47.33
2023-04-16T08:04:28.010Z,47.78
2023-04-16T08:06:55.797Z,52.53
2023-04-16T08:09:24.196Z,56.75
2023-04-16T08:11:52.035Z,50.88
2023-04-16T08:14:19.662Z,46.83
2023-04-16T08:16:50.548Z,45.70
2023-04-16T08:19:18.441Z,54.40
2023-04-16T08:21:46.159Z,54.47
2023-04-16T08:24:13.729Z,55.47
2023-04-16T08:26:41.243Z,55.00
2023-04-16T08:29:09.154Z,55.60
2023-04-16T08:31:36.963Z,46.05
2023-04-16T08:34:05.812Z,49.30
2023-04-16T08:36:33.335Z,43.88
2023-04-16T08:39:00.909Z,47.33
2023-04-16T08:41:30.821Z,42.40
2023-04-16T08:43:59.544Z,41.83
2023-04-16T08:46:27.599Z,46.50
2023-04-16T08:48:55.864Z,44.83
2023-04-16T08:51:25.030Z,43.97
2023-04-16T08:53:53.761Z,39.53
2023-04-16T08:56:22.006Z,44.75
2023-04-16T08:58:51.067Z,40.08
2023-04-16T09:01:19.648Z,38.28
2023-04-16T09:03:48.330Z,37.83
2023-04-16T09:06:16.252Z,42.08
2023-04-16T09:08:46.591Z,40.05
2023-04-16T09:11:14.774Z,34.95
2023-04-16T09:13:42.300Z,32.33
2023-04-16T09:16:10.280Z,37.25
2023-04-16T09:18:37.969Z,35.35
2023-04-16T09:21:07.696Z,37.05
2023-04-16T09:23:35.373Z,36.50
2023-04-16T09:26:06.050Z,36.33
2023-04-16T09:28:39.914Z,39.95
2023-04-16T09:31:11.520Z,34.22
2023-04-16T09:33:39.235Z,32.17
2023-04-16T09:36:07.192Z,32.42
2023-04-16T09:38:46.865Z,35.55
2023-04-16T09:41:17.236Z,31.15
2023-04-16T09:43:50.957Z,31.00
2023-04-16T09:46:18.620Z,36.25
2023-04-16T09:48:46.827Z,37.15
2023-04-16T09:51:14.402Z,37.95
2023-04-16T09:53:41.980Z,36.08
2023-04-16T09:56:10.085Z,34.45
2023-04-16T09:58:39.045Z,42.50
2023-04-16T10:01:08.671Z,38.13
2023-04-16T10:03:37.296Z,39.55
2023-04-16T10:06:16.814Z,35.88
2023-04-16T10:08:44.785Z,36.28
2023-04-16T10:11:12.507Z,35.28
2023-04-16T10:13:41.331Z,36.67
2023-04-16T10:16:09.139Z,31.48
2023-04-16T10:18:37.328Z,37.08
2023-04-16T10:21:05.268Z,36.35
2023-04-16T10:23:33.384Z,36.95
2023-04-16T10:26:01.780Z,29.85
2023-04-16T10:28:29.918Z,35.45
2023-04-16T10:30:59.359Z,32.50
2023-04-16T10:33:28.602Z,31.60
2023-04-16T10:36:08.559Z,32.25
2023-04-16T10:38:36.373Z,39.83
2023-04-16T10:41:04.616Z,36.08
2023-04-16T10:43:32.636Z,37.22
2023-04-16T10:46:18.089Z,38.97
2023-04-16T10:51:26.134Z,31.48
2023-04-16T10:53:55.069Z,27.52
2023-04-16T10:56:26.194Z,29.13
2023-04-16T10:58:54.932Z,36.45
2023-04-16T11:01:30.472Z,38.42
2023-04-16T11:03:59.986Z,30.70
2023-04-16T11:06:28.565Z,34.83
2023-04-16T11:08:56.255Z,36.67
2023-04-16T11:11:23.999Z,31.38
2023-04-16T11:13:55.733Z,38.30
2023-04-16T11:16:23.469Z,33.70
2023-04-16T11:18:52.746Z,31.80
2023-04-16T11:21:21.757Z,28.55
2023-04-16T11:23:49.935Z,29.45
2023-04-16T11:26:30.750Z,31.38
2023-04-16T11:29:00.189Z,28.10
2023-04-16T11:31:28.265Z,27.45
2023-04-16T11:33:59.410Z,30.17
2023-04-16T11:36:27.691Z,27.73
2023-04-16T11:39:02.082Z,31.48
2023-04-16T11:41:29.747Z,29.73
2023-04-16T11:43:57.508Z,23.20
2023-04-16T11:46:38.405Z,24.13
2023-04-16T11:49:07.364Z,25.80
2023-04-16T11:51:40.215Z,22.65
2023-04-16T11:54:10.374Z,27.08
2023-04-16T11:56:39.349Z,22.80
2023-04-16T11:59:08.353Z,20.75
2023-04-16T12:01:41.599Z,23.70
2023-04-16T12:04:11.194Z,18.98
2023-04-16T12:06:39.086Z,24.73
2023-04-16T12:09:25.180Z,21.17
2023-04-16T12:11:52.994Z,21.52
2023-04-16T12:14:20.561Z,22.25
2023-04-16T12:16:48.247Z,17.20
2023-04-16T12:19:17.317Z,19.27
2023-04-16T12:21:46.042Z,17.85
2023-04-16T12:24:14.310Z,17.38
2023-04-16T12:26:42.474Z,16.20
2023-04-16T12:29:16.963Z,16.38
2023-04-16T12:31:44.538Z,13.68
2023-04-16T12:34:12.297Z,16.33
2023-04-16T12:36:41.247Z,15.52
2023-04-16T12:39:10.735Z,18.45
2023-04-16T12:41:39.688Z,14.82
2023-04-16T12:44:09.079Z,15.38
2023-04-16T12:46:37.907Z,14.80
2023-04-16T12:49:05.694Z,19.00
2023-04-16T12:51:33.553Z,19.05
2023-04-16T12:54:02.701Z,18.38
2023-04-16T12:56:30.427Z,14.15
2023-04-16T12:58:58.246Z,17.77
2023-04-16T13:01:25.720Z,16.98
2023-04-16T13:03:53.626Z,13.77
2023-04-16T13:06:24.061Z,16.70
2023-04-16T13:08:51.603Z,20.13
2023-04-16T13:11:20.449Z,15.32
2023-04-16T13:13:47.912Z,16.33
2023-04-16T13:16:15.403Z,17.40
2023-04-16T13:18:42.994Z,17.25
2023-04-16T13:21:10.502Z,18.02
2023-04-16T13:23:37.954Z,12.82
2023-04-16T13:26:05.905Z,14.73
2023-04-16T13:28:34.900Z,20.42
2023-04-16T13:31:05.542Z,16.23
2023-04-16T13:33:33.477Z,20.17
2023-04-16T13:36:01.117Z,13.75
2023-04-16T13:38:28.734Z,19.02
2023-04-16T13:40:56.237Z,17.60
2023-04-16T13:43:23.687Z,20.98
2023-04-16T13:45:52.856Z,18.63
2023-04-16T13:48:20.337Z,17.63
2023-04-16T13:50:47.874Z,17.52
2023-04-16T13:53:15.385Z,17.02
2023-04-16T13:55:49.437Z,16.10
2023-04-16T13:58:17.264Z,20.17
2023-04-16T14:00:44.791Z,19.92
2023-04-16T14:03:13.807Z,19.92
2023-04-16T14:05:42.090Z,17.48
2023-04-16T14:08:10.102Z,20.55
2023-04-16T14:10:39.154Z,22.25
2023-04-16T14:13:06.782Z,20.23
2023-04-16T14:15:34.300Z,19.20
2023-04-16T14:18:03.834Z,24.35
2023-04-16T14:20:33.072Z,22.23
2023-04-16T14:23:00.552Z,21.77
2023-04-16T14:25:28.152Z,20.38
2023-04-16T14:27:56.011Z,22.60
2023-04-16T14:30:23.445Z,27.25
2023-04-16T14:32:51.142Z,19.77
2023-04-16T14:35:18.807Z,21.27
2023-04-16T14:37:47.812Z,25.23
2023-04-16T14:40:15.604Z,25.20
2023-04-16T14:42:43.158Z,29.10
2023-04-16T14:45:11.377Z,24.20
2023-04-16T14:47:45.527Z,23.35
2023-04-16T14:50:13.372Z,29.92
2023-04-16T14:52:40.843Z,29.20
2023-04-16T14:55:09.858Z,30.40
2023-04-16T14:57:38.507Z,33.60
2023-04-16T15:00:10.508Z,29.42
2023-04-16T15:02:38.194Z,29.33
2023-04-16T15:05:09.805Z,29.65
2023-04-16T15:07:37.476Z,27.33
2023-04-16T15:10:05.505Z,28.98
2023-04-16T15:12:34.490Z,30.65
2023-04-16T15:15:04.943Z,30.30
2023-04-16T15:17:32.612Z,32.60
2023-04-16T15:20:00.534Z,38.53
2023-04-16T15:22:28.353Z,34.70
2023-04-16T15:24:55.952Z,35.78
2023-04-16T15:27:26.759Z,35.90
2023-04-16T15:29:55.809Z,33.60
2023-04-16T15:32:23.570Z,29.10
2023-04-16T15:34:51.248Z,30.85
2023-04-16T15:37:37.107Z,34.85
2023-04-16T15:40:05.533Z,31.58
2023-04-16T15:42:33.061Z,35.90
2023-04-16T15:45:05.263Z,36.53
2023-04-16T15:47:36.439Z,38.10
2023-04-16T15:50:04.528Z,31.63
2023-04-16T15:52:32.120Z,31.10
2023-04-16T15:55:11.156Z,30.05
2023-04-16T15:57:41.767Z,35.58
2023-04-16T16:00:17.202Z,36.10
2023-04-16T16:02:45.561Z,39.08
2023-04-16T16:05:16.848Z,34.17
2023-04-16T16:07:44.426Z,33.85
2023-04-16T16:10:13.114Z,34.95
2023-04-16T16:12:41.305Z,32.45
2023-04-16T16:15:10.948Z,33.80
2023-04-16T16:17:40.907Z,29.10
2023-04-16T16:20:10.860Z,33.85
2023-04-16T16:22:41.787Z,30.85
2023-04-16T16:25:11.506Z,32.75
2023-04-16T16:27:40.779Z,30.85
2023-04-16T16:30:09.341Z,33.63
2023-04-16T16:32:37.710Z,35.03
2023-04-16T16:35:07.220Z,35.50
2023-04-16T16:37:34.788Z,42.65
2023-04-16T16:40:14.730Z,40.38
2023-04-16T16:42:42.554Z,41.85
2023-04-16T16:45:10.878Z,40.78
2023-04-16T16:47:38.418Z,47.40
2023-04-16T16:50:08.209Z,43.03
2023-04-16T16:52:37.490Z,43.83
2023-04-16T16:55:08.647Z,47.17
2023-04-16T16:57:36.192Z,48.38
2023-04-16T17:00:08.067Z,40.70
2023-04-16T17:02:35.785Z,51.65
2023-04-16T17:05:03.507Z,40.00
2023-04-16T17:07:53.727Z,43.58
2023-04-16T17:10:21.359Z,47.22
2023-04-16T17:12:49.300Z,40.42
2023-04-16T17:15:18.490Z,49.80
2023-04-16T17:17:47.187Z,45.05
2023-04-16T17:20:14.733Z,48.97
2023-04-16T17:22:43.759Z,47.35
2023-04-16T17:25:11.501Z,44.85
2023-04-16T17:27:42.025Z,47.92
2023-04-16T17:30:09.955Z,55.58
2023-04-16T17:32:37.460Z,43.67
2023-04-16T17:35:31.420Z,44.28
2023-04-16T17:37:58.495Z,46.55
2023-04-16T17:40:26.187Z,46.53
2023-04-16T17:42:53.750Z,43.28
2023-04-16T17:45:21.375Z,45.22
2023-04-16T17:47:48.860Z,42.03
2023-04-16T17:50:16.381Z,44.13
2023-04-16T17:52:44.403Z,44.25
2023-04-16T17:55:13.764Z,48.80
2023-04-16T17:57:44.680Z,46.67
2023-04-16T18:00:15.309Z,44.13
2023-04-16T18:02:42.939Z,49.97
2023-04-16T18:05:38.218Z,50.03
2023-04-16T18:08:06.121Z,43.95
2023-04-16T18:10:35.148Z,47.85
2023-04-16T18:13:02.614Z,54.42
2023-04-16T18:15:30.885Z,50.97
2023-04-16T18:17:58.568Z,47.53
2023-04-16T18:20:26.060Z,49.95
2023-04-16T18:22:53.783Z,48.63
2023-04-16T18:25:32.187Z,44.03
2023-04-16T18:28:05.163Z,42.03
2023-04-16T18:30:32.691Z,47.13
2023-04-16T18:33:30.708Z,45.90
2023-04-16T18:35:56.701Z,41.95
2023-04-16T18:38:28.970Z,39.90
2023-04-16T18:40:56.768Z,44.80
2023-04-16T18:43:25.692Z,46.85
2023-04-16T18:45:53.420Z,47.15
2023-04-16T18:48:23.753Z,44.80
2023-04-16T18:50:53.034Z,42.25
2023-04-16T18:53:21.238Z,52.15
2023-04-16T18:55:53.507Z,47.38
2023-04-16T18:58:21.934Z,44.90
2023-04-16T19:00:53.241Z,46.45
2023-04-16T19:03:20.915Z,44.78
2023-04-16T19:05:48.521Z,47.58
2023-04-16T19:08:15.916Z,44.20
2023-04-16T19:10:43.447Z,48.22
2023-04-16T19:13:10.975Z,53.42
2023-04-16T19:15:38.637Z,48.92
2023-04-16T19:18:07.674Z,45.65
2023-04-16T19:20:35.576Z,46.03
2023-04-16T19:23:05.780Z,46.33
2023-04-16T19:25:33.687Z,46.67
2023-04-16T19:28:01.171Z,46.13
2023-04-16T19:30:28.954Z,44.08
2023-04-16T19:33:00.843Z,47.97
2023-04-16T19:35:30.182Z,46.33
2023-04-16T19:37:58.546Z,47.58
2023-04-16T19:40:26.060Z,55.65
2023-04-16T19:42:53.728Z,50.58
2023-04-16T19:45:25.687Z,45.10
2023-04-16T19:47:53.550Z,45.22
2023-04-16T19:50:21.087Z,48.13
2023-04-16T19:52:52.361Z,41.97
2023-04-16T19:55:22.437Z,48.15
2023-04-16T19:58:10.279Z,45.38
2023-04-16T20:00:44.219Z,46.30
2023-04-16T20:03:45.901Z,49.75
2023-04-16T20:06:26.804Z,44.55
2023-04-16T20:08:57.467Z,43.38
2023-04-16T20:11:30.315Z,48.85
2023-04-16T20:14:00.249Z,51.83
2023-04-16T20:16:27.770Z,44.72
2023-04-16T20:18:55.370Z,44.40
2023-04-16T20:21:23.041Z,45.10
2023-04-16T20:23:50.542Z,47.95
2023-04-16T20:26:23.976Z,48.50
2023-04-16T20:28:51.508Z,44.65
2023-04-16T20:31:19.045Z,47.67
2023-04-16T20:33:46.587Z,45.63
2023-04-16T20:36:16.811Z,41.47
2023-04-16T20:38:45.056Z,48.63
2023-04-16T20:41:20.187Z,49.88
2023-04-16T20:43:52.934Z,49.13
2023-04-16T20:46:24.505Z,52.08
2023-04-16T20:48:52.450Z,46.20
2023-04-16T20:51:25.235Z,45.75
2023-04-16T20:53:52.879Z,43.45
2023-04-16T20:56:31.891Z,42.25
2023-04-16T20:59:00.988Z,44.58
2023-04-16T21:01:28.514Z,41.58
2023-04-16T21:03:56.357Z,42.15
2023-04-16T21:06:24.133Z,43.28
2023-04-16T21:08:51.626Z,48.15
2023-04-16T21:11:19.248Z,43.50
2023-04-16T21:13:46.896Z,42.10
2023-04-16T21:16:15.951Z,38.92
2023-04-16T21:18:45.346Z,38.28
2023-04-16T21:21:12.931Z,33.78
2023-04-16T21:23:40.478Z,36.33
2023-04-16T21:26:08.007Z,35.13
2023-04-16T21:28:35.546Z,35.20
2023-04-16T21:31:03.264Z,36.65
2023-04-16T21:33:32.417Z,39.88
2023-04-16T21:35:59.903Z,39.50
2023-04-16T21:38:27.588Z,48.60
2023-04-16T21:40:55.706Z,39.85
2023-04-16T21:43:23.334Z,35.42
2023-04-16T21:45:53.010Z,41.63
2023-04-16T21:48:20.627Z,38.72
2023-04-16T21:50:54.735Z,40.45
2023-04-16T21:53:22.421Z,36.22
2023-04-16T21:55:51.145Z,35.47
2023-04-16T21:58:19.057Z,37.40
2023-04-16T22:00:47.174Z,37.97
2023-04-16T22:03:14.873Z,40.97
2023-04-16T22:05:42.714Z,33.75
2023-04-16T22:10:45.094Z,30.25
2023-04-16T22:13:13.932Z,34.95
2023-04-16T22:15:42.368Z,37.30
2023-04-16T22:18:09.833Z,36.00
2023-04-16T22:20:39.817Z,32.67
2023-04-16T22:23:12.413Z,35.08
2023-04-16T22:25:41.284Z,35.38
2023-04-16T22:28:08.735Z,30.23
2023-04-16T22:30:36.248Z,28.65
2023-04-16T22:33:04.378Z,34.63
2023-04-16T22:35:32.284Z,32.97
2023-04-16T22:37:59.882Z,33.13
2023-04-16T22:40:27.438Z,29.70
2023-04-16T22:42:56.284Z,30.48
2023-04-16T22:45:23.973Z,38.17
2023-04-16T22:47:51.440Z,30.02
2023-04-16T22:50:19.366Z,27.70
2023-04-16T22:52:46.803Z,36.72
2023-04-16T22:55:14.327Z,37.63
2023-04-16T22:57:42.127Z,36.20
2023-04-16T23:00:16.886Z,36.55
2023-04-16T23:02:45.130Z,33.47
2023-04-16T23:05:12.852Z,44.40
2023-04-16T23:07:40.582Z,45.80
2023-04-16T23:10:08.959Z,43.75
2023-04-16T23:12:38.016Z,49.75
2023-04-16T23:15:06.548Z,49.10
2023-04-16T23:17:36.329Z,50.08
2023-04-16T23:20:05.336Z,64.95
2023-04-16T23:22:32.822Z,58.70
2023-04-16T23:25:00.490Z,53.72
2023-04-16T23:27:28.048Z,49.08
2023-04-16T23:29:55.811Z,43.90
2023-04-16T23:32:23.503Z,43.20
2023-04-16T23:34:52.392Z,41.00
2023-04-16T23:37:19.817Z,40.28
2023-04-16T23:39:47.309Z,34.22
2023-04-16T23:42:14.814Z,35.25
2023-04-16T23:44:42.343Z,38.85
2023-04-16T23:47:09.837Z,32.13
2023-04-16T23:49:37.324Z,35.03
2023-04-16T23:52:06.599Z,32.38
2023-04-16T23:54:34.137Z,32.45
2023-04-16T23:57:03.654Z,32.15
2023-04-16T23:59:31.226Z,29.83
